sensor_id;sensor_type;location;lat;lon;timestamp;temperature;humidity
71942;DHT22;59997;53.300;-6.260;2023-04-24T00:00:13;7.54;87.82
71942;DHT22;59997;53.300;-6.260;2023-04-24T00:02:39;7.67;87.58
71942;DHT22;59997;53.300;-6.260;2023-04-24T00:05:06;7.68;87.32
71942;DHT22;59997;53.300;-6.260;2023-04-24T00:07:31;7.64;87.26
71942;DHT22;59997;53.300;-6.260;2023-04-24T00:09:57;7.71;86.73
71942;DHT22;59997;53.300;-6.260;2023-04-24T00:12:24;7.72;86.73
71942;DHT22;59997;53.300;-6.260;2023-04-24T00:14:49;7.65;86.87
71942;DHT22;59997;53.300;-6.260;2023-04-24T00:17:15;7.59;86.87
71942;DHT22;59997;53.300;-6.260;2023-04-24T00:19:40;7.52;86.94
71942;DHT22;59997;53.300;-6.260;2023-04-24T00:22:06;7.74;86.32
71942;DHT22;59997;53.300;-6.260;2023-04-24T00:24:31;7.61;86.40
71942;DHT22;59997;53.300;-6.260;2023-04-24T00:26:57;7.51;86.46
71942;DHT22;59997;53.300;-6.260;2023-04-24T00:29:23;7.51;86.53
71942;DHT22;59997;53.300;-6.260;2023-04-24T00:31:48;7.54;86.39
71942;DHT22;59997;53.300;-6.260;2023-04-24T00:34:14;7.47;86.36
71942;DHT22;59997;53.300;-6.260;2023-04-24T00:36:39;7.40;86.50
71942;DHT22;59997;53.300;-6.260;2023-04-24T00:39:05;7.52;86.45
71942;DHT22;59997;53.300;-6.260;2023-04-24T00:41:34;7.47;86.36
71942;DHT22;59997;53.300;-6.260;2023-04-24T00:43:59;7.33;86.46
71942;DHT22;59997;53.300;-6.260;2023-04-24T00:46:25;7.34;86.57
71942;DHT22;59997;53.300;-6.260;2023-04-24T00:48:50;7.33;86.49
71942;DHT22;59997;53.300;-6.260;2023-04-24T00:51:16;7.20;86.59
71942;DHT22;59997;53.300;-6.260;2023-04-24T00:53:41;7.09;86.83
71942;DHT22;59997;53.300;-6.260;2023-04-24T00:56:07;7.07;86.93
71942;DHT22;59997;53.300;-6.260;2023-04-24T00:58:32;7.02;87.00
71942;DHT22;59997;53.300;-6.260;2023-04-24T01:00:58;6.88;87.08
71942;DHT22;59997;53.300;-6.260;2023-04-24T01:03:29;6.74;87.15
71942;DHT22;59997;53.300;-6.260;2023-04-24T01:05:55;6.63;87.17
71942;DHT22;59997;53.300;-6.260;2023-04-24T01:08:23;6.47;87.34
71942;DHT22;59997;53.300;-6.260;2023-04-24T01:10:50;6.33;87.51
71942;DHT22;59997;53.300;-6.260;2023-04-24T01:13:16;6.19;87.72
71942;DHT22;59997;53.300;-6.260;2023-04-24T01:15:43;6.12;87.90
71942;DHT22;59997;53.300;-6.260;2023-04-24T01:18:08;6.06;87.98
71942;DHT22;59997;53.300;-6.260;2023-04-24T01:20:34;5.95;88.13
71942;DHT22;59997;53.300;-6.260;2023-04-24T01:23:01;5.87;88.12
71942;DHT22;59997;53.300;-6.260;2023-04-24T01:25:28;5.78;88.33
71942;DHT22;59997;53.300;-6.260;2023-04-24T01:27:53;5.70;88.75
71942;DHT22;59997;53.300;-6.260;2023-04-24T01:30:19;5.66;88.92
71942;DHT22;59997;53.300;-6.260;2023-04-24T01:32:45;5.67;88.89
71942;DHT22;59997;53.300;-6.260;2023-04-24T01:35:11;5.75;89.00
71942;DHT22;59997;53.300;-6.260;2023-04-24T01:37:36;5.85;89.04
71942;DHT22;59997;53.300;-6.260;2023-04-24T01:40:04;5.90;89.09
71942;DHT22;59997;53.300;-6.260;2023-04-24T01:42:30;5.91;89.18
71942;DHT22;59997;53.300;-6.260;2023-04-24T01:44:56;5.91;89.28
71942;DHT22;59997;53.300;-6.260;2023-04-24T01:47:23;5.85;89.24
71942;DHT22;59997;53.300;-6.260;2023-04-24T01:49:49;5.81;89.27
71942;DHT22;59997;53.300;-6.260;2023-04-24T01:52:16;5.79;89.33
71942;DHT22;59997;53.300;-6.260;2023-04-24T01:54:43;5.87;89.35
71942;DHT22;59997;53.300;-6.260;2023-04-24T01:57:08;5.90;89.38
71942;DHT22;59997;53.300;-6.260;2023-04-24T01:59:34;5.98;89.45
71942;DHT22;59997;53.300;-6.260;2023-04-24T02:02:02;6.02;89.48
71942;DHT22;59997;53.300;-6.260;2023-04-24T02:04:27;6.05;89.48
71942;DHT22;59997;53.300;-6.260;2023-04-24T02:06:53;6.16;89.53
71942;DHT22;59997;53.300;-6.260;2023-04-24T02:09:19;6.28;89.55
71942;DHT22;59997;53.300;-6.260;2023-04-24T02:11:44;6.39;89.53
71942;DHT22;59997;53.300;-6.260;2023-04-24T02:14:10;6.51;89.57
71942;DHT22;59997;53.300;-6.260;2023-04-24T02:16:35;6.61;89.55
71942;DHT22;59997;53.300;-6.260;2023-04-24T02:19:01;6.68;89.50
71942;DHT22;59997;53.300;-6.260;2023-04-24T02:21:27;6.78;89.49
71942;DHT22;59997;53.300;-6.260;2023-04-24T02:23:53;6.87;89.49
71942;DHT22;59997;53.300;-6.260;2023-04-24T02:26:19;6.96;89.45
71942;DHT22;59997;53.300;-6.260;2023-04-24T02:28:44;7.03;89.42
71942;DHT22;59997;53.300;-6.260;2023-04-24T02:31:10;7.12;89.39
71942;DHT22;59997;53.300;-6.260;2023-04-24T02:33:35;7.19;89.34
71942;DHT22;59997;53.300;-6.260;2023-04-24T02:36:01;7.23;89.21
71942;DHT22;59997;53.300;-6.260;2023-04-24T02:38:28;7.28;89.15
71942;DHT22;59997;53.300;-6.260;2023-04-24T02:40:53;7.30;89.13
71942;DHT22;59997;53.300;-6.260;2023-04-24T02:43:19;7.33;89.14
71942;DHT22;59997;53.300;-6.260;2023-04-24T02:45:45;7.31;89.11
71942;DHT22;59997;53.300;-6.260;2023-04-24T02:48:11;7.28;89.19
71942;DHT22;59997;53.300;-6.260;2023-04-24T02:50:36;7.30;89.20
71942;DHT22;59997;53.300;-6.260;2023-04-24T02:53:02;7.31;89.23
71942;DHT22;59997;53.300;-6.260;2023-04-24T02:55:27;7.30;89.29
71942;DHT22;59997;53.300;-6.260;2023-04-24T02:57:53;7.31;89.31
71942;DHT22;59997;53.300;-6.260;2023-04-24T03:00:19;7.28;89.35
71942;DHT22;59997;53.300;-6.260;2023-04-24T03:02:44;7.30;89.41
71942;DHT22;59997;53.300;-6.260;2023-04-24T03:05:10;7.31;89.49
71942;DHT22;59997;53.300;-6.260;2023-04-24T03:07:37;7.34;89.58
71942;DHT22;59997;53.300;-6.260;2023-04-24T03:10:04;7.34;89.56
71942;DHT22;59997;53.300;-6.260;2023-04-24T03:12:31;7.34;89.65
71942;DHT22;59997;53.300;-6.260;2023-04-24T03:14:56;7.34;89.65
71942;DHT22;59997;53.300;-6.260;2023-04-24T03:17:22;7.33;89.66
71942;DHT22;59997;53.300;-6.260;2023-04-24T03:19:47;7.31;89.64
71942;DHT22;59997;53.300;-6.260;2023-04-24T03:22:13;7.28;89.65
71942;DHT22;59997;53.300;-6.260;2023-04-24T03:24:38;7.27;89.66
71942;DHT22;59997;53.300;-6.260;2023-04-24T03:27:04;7.22;89.69
71942;DHT22;59997;53.300;-6.260;2023-04-24T03:29:29;7.23;89.70
71942;DHT22;59997;53.300;-6.260;2023-04-24T03:31:55;7.22;89.65
71942;DHT22;59997;53.300;-6.260;2023-04-24T03:34:20;7.24;89.69
71942;DHT22;59997;53.300;-6.260;2023-04-24T03:36:46;7.23;89.70
71942;DHT22;59997;53.300;-6.260;2023-04-24T03:39:13;7.23;89.75
71942;DHT22;59997;53.300;-6.260;2023-04-24T03:41:38;7.23;89.75
71942;DHT22;59997;53.300;-6.260;2023-04-24T03:44:03;7.27;89.80
71942;DHT22;59997;53.300;-6.260;2023-04-24T03:46:29;7.26;89.79
71942;DHT22;59997;53.300;-6.260;2023-04-24T03:48:55;7.27;89.79
71942;DHT22;59997;53.300;-6.260;2023-04-24T03:51:20;7.30;89.83
71942;DHT22;59997;53.300;-6.260;2023-04-24T03:53:47;7.31;89.83
71942;DHT22;59997;53.300;-6.260;2023-04-24T03:56:12;7.31;89.87
71942;DHT22;59997;53.300;-6.260;2023-04-24T03:58:38;7.31;89.88
71942;DHT22;59997;53.300;-6.260;2023-04-24T04:01:03;7.31;89.91
71942;DHT22;59997;53.300;-6.260;2023-04-24T04:03:29;7.37;89.95
71942;DHT22;59997;53.300;-6.260;2023-04-24T04:05:54;7.35;89.97
71942;DHT22;59997;53.300;-6.260;2023-04-24T04:08:20;7.44;89.97
71942;DHT22;59997;53.300;-6.260;2023-04-24T04:10:45;7.48;90.01
71942;DHT22;59997;53.300;-6.260;2023-04-24T04:13:11;7.57;89.91
71942;DHT22;59997;53.300;-6.260;2023-04-24T04:15:36;7.51;89.80
71942;DHT22;59997;53.300;-6.260;2023-04-24T04:18:02;7.46;89.78
71942;DHT22;59997;53.300;-6.260;2023-04-24T04:20:27;7.41;89.80
71942;DHT22;59997;53.300;-6.260;2023-04-24T04:22:53;7.38;89.83
71942;DHT22;59997;53.300;-6.260;2023-04-24T04:25:18;7.34;89.83
71942;DHT22;59997;53.300;-6.260;2023-04-24T04:27:46;7.34;89.86
71942;DHT22;59997;53.300;-6.260;2023-04-24T04:30:13;7.35;89.76
71942;DHT22;59997;53.300;-6.260;2023-04-24T04:32:38;7.27;89.79
71942;DHT22;59997;53.300;-6.260;2023-04-24T04:35:04;7.33;89.85
71942;DHT22;59997;53.300;-6.260;2023-04-24T04:37:31;7.30;89.89
71942;DHT22;59997;53.300;-6.260;2023-04-24T04:40:00;7.31;89.84
71942;DHT22;59997;53.300;-6.260;2023-04-24T04:42:26;7.30;89.82
71942;DHT22;59997;53.300;-6.260;2023-04-24T04:44:55;7.31;89.66
71942;DHT22;59997;53.300;-6.260;2023-04-24T04:47:22;7.28;89.70
71942;DHT22;59997;53.300;-6.260;2023-04-24T04:49:48;7.28;89.73
71942;DHT22;59997;53.300;-6.260;2023-04-24T04:52:14;7.26;89.44
71942;DHT22;59997;53.300;-6.260;2023-04-24T04:54:39;7.20;89.55
71942;DHT22;59997;53.300;-6.260;2023-04-24T04:57:05;7.26;89.50
71942;DHT22;59997;53.300;-6.260;2023-04-24T04:59:31;7.31;89.30
71942;DHT22;59997;53.300;-6.260;2023-04-24T05:01:57;7.38;89.06
71942;DHT22;59997;53.300;-6.260;2023-04-24T05:04:22;7.43;88.93
71942;DHT22;59997;53.300;-6.260;2023-04-24T05:06:47;7.41;89.00
71942;DHT22;59997;53.300;-6.260;2023-04-24T05:09:13;7.40;89.08
71942;DHT22;59997;53.300;-6.260;2023-04-24T05:11:38;7.28;88.90
71942;DHT22;59997;53.300;-6.260;2023-04-24T05:14:04;7.17;88.99
71942;DHT22;59997;53.300;-6.260;2023-04-24T05:16:29;7.07;89.08
71942;DHT22;59997;53.300;-6.260;2023-04-24T05:18:56;6.99;89.17
71942;DHT22;59997;53.300;-6.260;2023-04-24T05:21:21;6.82;89.55
71942;DHT22;59997;53.300;-6.260;2023-04-24T05:23:47;6.74;90.14
71942;DHT22;59997;53.300;-6.260;2023-04-24T05:26:13;6.67;89.97
71942;DHT22;59997;53.300;-6.260;2023-04-24T05:28:38;6.61;89.79
71942;DHT22;59997;53.300;-6.260;2023-04-24T05:31:04;6.58;89.71
71942;DHT22;59997;53.300;-6.260;2023-04-24T05:33:29;6.47;89.58
71942;DHT22;59997;53.300;-6.260;2023-04-24T05:35:55;6.33;89.63
71942;DHT22;59997;53.300;-6.260;2023-04-24T05:38:21;6.25;89.65
71942;DHT22;59997;53.300;-6.260;2023-04-24T05:40:46;6.20;89.85
71942;DHT22;59997;53.300;-6.260;2023-04-24T05:43:12;6.09;89.83
71942;DHT22;59997;53.300;-6.260;2023-04-24T05:45:38;5.99;89.90
71942;DHT22;59997;53.300;-6.260;2023-04-24T05:48:04;5.91;90.52
71942;DHT22;59997;53.300;-6.260;2023-04-24T05:50:30;5.90;90.89
71942;DHT22;59997;53.300;-6.260;2023-04-24T05:52:55;5.88;90.99
71942;DHT22;59997;53.300;-6.260;2023-04-24T05:55:24;5.77;90.96
71942;DHT22;59997;53.300;-6.260;2023-04-24T05:57:50;5.60;90.88
71942;DHT22;59997;53.300;-6.260;2023-04-24T06:00:16;5.59;90.95
71942;DHT22;59997;53.300;-6.260;2023-04-24T06:02:43;5.59;91.04
71942;DHT22;59997;53.300;-6.260;2023-04-24T06:05:08;5.61;91.08
71942;DHT22;59997;53.300;-6.260;2023-04-24T06:07:34;5.59;91.18
71942;DHT22;59997;53.300;-6.260;2023-04-24T06:10:00;5.47;91.21
71942;DHT22;59997;53.300;-6.260;2023-04-24T06:12:26;5.43;91.11
71942;DHT22;59997;53.300;-6.260;2023-04-24T06:14:52;5.36;91.22
71942;DHT22;59997;53.300;-6.260;2023-04-24T06:17:18;5.39;91.37
71942;DHT22;59997;53.300;-6.260;2023-04-24T06:19:43;5.29;91.68
71942;DHT22;59997;53.300;-6.260;2023-04-24T06:22:09;5.22;91.69
71942;DHT22;59997;53.300;-6.260;2023-04-24T06:24:35;5.16;91.71
71942;DHT22;59997;53.300;-6.260;2023-04-24T06:27:00;5.15;91.65
71942;DHT22;59997;53.300;-6.260;2023-04-24T06:29:26;5.21;91.61
71942;DHT22;59997;53.300;-6.260;2023-04-24T06:31:52;5.24;91.62
71942;DHT22;59997;53.300;-6.260;2023-04-24T06:34:18;5.24;91.63
71942;DHT22;59997;53.300;-6.260;2023-04-24T06:36:43;5.18;91.67
71942;DHT22;59997;53.300;-6.260;2023-04-24T06:39:09;5.22;91.74
71942;DHT22;59997;53.300;-6.260;2023-04-24T06:41:34;5.32;91.59
71942;DHT22;59997;53.300;-6.260;2023-04-24T06:44:00;5.38;91.58
71942;DHT22;59997;53.300;-6.260;2023-04-24T06:46:26;5.39;91.53
71942;DHT22;59997;53.300;-6.260;2023-04-24T06:48:55;5.35;91.62
71942;DHT22;59997;53.300;-6.260;2023-04-24T06:51:25;5.40;91.70
71942;DHT22;59997;53.300;-6.260;2023-04-24T06:53:54;5.40;91.70
71942;DHT22;59997;53.300;-6.260;2023-04-24T06:56:21;5.43;91.78
71942;DHT22;59997;53.300;-6.260;2023-04-24T06:58:47;5.44;91.80
71942;DHT22;59997;53.300;-6.260;2023-04-24T07:01:13;5.53;91.83
71942;DHT22;59997;53.300;-6.260;2023-04-24T07:03:38;5.57;91.81
71942;DHT22;59997;53.300;-6.260;2023-04-24T07:06:05;5.54;91.69
71942;DHT22;59997;53.300;-6.260;2023-04-24T07:08:30;5.47;91.63
71942;DHT22;59997;53.300;-6.260;2023-04-24T07:10:56;5.43;91.58
71942;DHT22;59997;53.300;-6.260;2023-04-24T07:13:23;5.39;91.40
71942;DHT22;59997;53.300;-6.260;2023-04-24T07:15:48;5.36;91.23
71942;DHT22;59997;53.300;-6.260;2023-04-24T07:18:16;5.32;91.27
71942;DHT22;59997;53.300;-6.260;2023-04-24T07:20:42;5.33;91.25
71942;DHT22;59997;53.300;-6.260;2023-04-24T07:23:08;5.39;91.19
71942;DHT22;59997;53.300;-6.260;2023-04-24T07:25:33;5.36;91.08
71942;DHT22;59997;53.300;-6.260;2023-04-24T07:27:59;5.46;91.16
71942;DHT22;59997;53.300;-6.260;2023-04-24T07:30:24;5.56;91.13
71942;DHT22;59997;53.300;-6.260;2023-04-24T07:32:50;5.53;91.00
71942;DHT22;59997;53.300;-6.260;2023-04-24T07:35:16;5.49;90.74
71942;DHT22;59997;53.300;-6.260;2023-04-24T07:37:41;5.47;90.76
71942;DHT22;59997;53.300;-6.260;2023-04-24T07:40:12;5.52;90.83
71942;DHT22;59997;53.300;-6.260;2023-04-24T07:42:38;5.54;90.91
71942;DHT22;59997;53.300;-6.260;2023-04-24T07:45:04;5.56;90.84
71942;DHT22;59997;53.300;-6.260;2023-04-24T07:47:29;5.59;90.92
71942;DHT22;59997;53.300;-6.260;2023-04-24T07:49:55;5.57;90.67
71942;DHT22;59997;53.300;-6.260;2023-04-24T07:52:21;5.60;90.67
71942;DHT22;59997;53.300;-6.260;2023-04-24T07:54:46;5.59;90.69
71942;DHT22;59997;53.300;-6.260;2023-04-24T07:57:12;5.63;90.49
71942;DHT22;59997;53.300;-6.260;2023-04-24T07:59:37;5.66;90.60
71942;DHT22;59997;53.300;-6.260;2023-04-24T08:02:03;5.70;90.49
71942;DHT22;59997;53.300;-6.260;2023-04-24T08:04:28;5.75;90.44
71942;DHT22;59997;53.300;-6.260;2023-04-24T08:06:54;5.77;90.35
71942;DHT22;59997;53.300;-6.260;2023-04-24T08:09:19;5.84;90.23
71942;DHT22;59997;53.300;-6.260;2023-04-24T08:11:45;5.87;89.98
71942;DHT22;59997;53.300;-6.260;2023-04-24T08:14:10;5.90;90.11
71942;DHT22;59997;53.300;-6.260;2023-04-24T08:16:38;5.87;89.97
71942;DHT22;59997;53.300;-6.260;2023-04-24T08:19:03;5.94;89.70
71942;DHT22;59997;53.300;-6.260;2023-04-24T08:21:29;5.88;89.43
71942;DHT22;59997;53.300;-6.260;2023-04-24T08:23:55;5.90;89.52
71942;DHT22;59997;53.300;-6.260;2023-04-24T08:26:20;5.93;89.59
71942;DHT22;59997;53.300;-6.260;2023-04-24T08:28:46;6.01;89.37
71942;DHT22;59997;53.300;-6.260;2023-04-24T08:31:11;5.99;89.37
71942;DHT22;59997;53.300;-6.260;2023-04-24T08:33:37;6.08;89.32
71942;DHT22;59997;53.300;-6.260;2023-04-24T08:36:03;6.19;89.09
71942;DHT22;59997;53.300;-6.260;2023-04-24T08:38:29;6.33;89.10
71942;DHT22;59997;53.300;-6.260;2023-04-24T08:40:58;6.63;89.07
71942;DHT22;59997;53.300;-6.260;2023-04-24T08:43:24;6.95;89.00
71942;DHT22;59997;53.300;-6.260;2023-04-24T08:45:51;7.19;88.75
71942;DHT22;59997;53.300;-6.260;2023-04-24T08:48:17;7.23;87.87
71942;DHT22;59997;53.300;-6.260;2023-04-24T08:50:43;7.47;87.72
71942;DHT22;59997;53.300;-6.260;2023-04-24T08:53:10;7.72;86.78
71942;DHT22;59997;53.300;-6.260;2023-04-24T08:55:37;7.92;86.35
71942;DHT22;59997;53.300;-6.260;2023-04-24T08:58:03;7.93;85.27
71942;DHT22;59997;53.300;-6.260;2023-04-24T09:00:29;7.94;85.26
71942;DHT22;59997;53.300;-6.260;2023-04-24T09:02:56;8.09;85.85
71942;DHT22;59997;53.300;-6.260;2023-04-24T09:05:22;8.09;84.42
71942;DHT22;59997;53.300;-6.260;2023-04-24T09:07:56;8.34;84.93
71942;DHT22;59997;53.300;-6.260;2023-04-24T09:10:23;8.37;85.00
71942;DHT22;59997;53.300;-6.260;2023-04-24T09:12:53;8.42;84.94
71942;DHT22;59997;53.300;-6.260;2023-04-24T09:15:19;8.26;84.52
71942;DHT22;59997;53.300;-6.260;2023-04-24T09:17:46;7.79;84.03
71942;DHT22;59997;53.300;-6.260;2023-04-24T09:20:12;7.52;84.27
71942;DHT22;59997;53.300;-6.260;2023-04-24T09:22:37;7.43;85.10
71942;DHT22;59997;53.300;-6.260;2023-04-24T09:25:07;7.50;85.53
71942;DHT22;59997;53.300;-6.260;2023-04-24T09:27:34;7.40;85.37
71942;DHT22;59997;53.300;-6.260;2023-04-24T09:30:00;7.43;85.66
71942;DHT22;59997;53.300;-6.260;2023-04-24T09:32:26;7.61;85.83
71942;DHT22;59997;53.300;-6.260;2023-04-24T09:37:35;7.78;85.62
71942;DHT22;59997;53.300;-6.260;2023-04-24T09:40:13;7.74;83.19
71942;DHT22;59997;53.300;-6.260;2023-04-24T09:42:39;7.87;84.67
71942;DHT22;59997;53.300;-6.260;2023-04-24T09:45:09;7.86;83.42
71942;DHT22;59997;53.300;-6.260;2023-04-24T09:47:39;7.81;84.25
71942;DHT22;59997;53.300;-6.260;2023-04-24T09:50:15;8.09;84.68
71942;DHT22;59997;53.300;-6.260;2023-04-24T09:52:46;8.10;83.72
71942;DHT22;59997;53.300;-6.260;2023-04-24T09:55:14;8.28;84.04
71942;DHT22;59997;53.300;-6.260;2023-04-24T09:57:59;8.58;83.62
71942;DHT22;59997;53.300;-6.260;2023-04-24T10:00:32;8.72;81.86
71942;DHT22;59997;53.300;-6.260;2023-04-24T10:03:05;8.87;83.02
71942;DHT22;59997;53.300;-6.260;2023-04-24T10:05:37;8.94;80.97
71942;DHT22;59997;53.300;-6.260;2023-04-24T10:08:11;8.84;79.71
71942;DHT22;59997;53.300;-6.260;2023-04-24T10:10:46;8.84;81.60
71942;DHT22;59997;53.300;-6.260;2023-04-24T10:13:13;9.24;81.59
71942;DHT22;59997;53.300;-6.260;2023-04-24T10:15:40;9.38;79.25
71942;DHT22;59997;53.300;-6.260;2023-04-24T10:18:07;9.79;80.65
71942;DHT22;59997;53.300;-6.260;2023-04-24T10:20:34;9.91;78.96
71942;DHT22;59997;53.300;-6.260;2023-04-24T10:23:00;9.76;77.65
71942;DHT22;59997;53.300;-6.260;2023-04-24T10:25:31;9.91;77.90
71942;DHT22;59997;53.300;-6.260;2023-04-24T10:27:58;9.95;75.81
71942;DHT22;59997;53.300;-6.260;2023-04-24T10:30:26;9.90;75.58
71942;DHT22;59997;53.300;-6.260;2023-04-24T10:32:52;10.43;74.86
71942;DHT22;59997;53.300;-6.260;2023-04-24T10:35:18;11.01;73.63
71942;DHT22;59997;53.300;-6.260;2023-04-24T10:38:08;11.64;74.13
71942;DHT22;59997;53.300;-6.260;2023-04-24T10:40:35;12.01;73.19
71942;DHT22;59997;53.300;-6.260;2023-04-24T10:43:08;11.56;73.98
71942;DHT22;59997;53.300;-6.260;2023-04-24T10:45:37;11.22;70.12
71942;DHT22;59997;53.300;-6.260;2023-04-24T10:48:08;11.32;70.16
71942;DHT22;59997;53.300;-6.260;2023-04-24T10:50:46;11.00;69.58
71942;DHT22;59997;53.300;-6.260;2023-04-24T10:53:16;10.60;69.35
71942;DHT22;59997;53.300;-6.260;2023-04-24T10:55:45;10.17;70.88
71942;DHT22;59997;53.300;-6.260;2023-04-24T10:58:11;9.91;72.10
71942;DHT22;59997;53.300;-6.260;2023-04-24T11:00:38;9.95;72.57
71942;DHT22;59997;53.300;-6.260;2023-04-24T11:03:06;10.15;72.26
71942;DHT22;59997;53.300;-6.260;2023-04-24T11:08:24;9.35;70.10
71942;DHT22;59997;53.300;-6.260;2023-04-24T11:11:04;9.41;71.95
71942;DHT22;59997;53.300;-6.260;2023-04-24T11:19:08;9.87;69.56
71942;DHT22;59997;53.300;-6.260;2023-04-24T11:26:54;9.66;73.40
71942;DHT22;59997;53.300;-6.260;2023-04-24T11:29:20;9.80;73.33
71942;DHT22;59997;53.300;-6.260;2023-04-24T11:31:47;9.72;71.65
71942;DHT22;59997;53.300;-6.260;2023-04-24T11:34:17;9.53;72.12
71942;DHT22;59997;53.300;-6.260;2023-04-24T11:36:44;9.67;71.57
71942;DHT22;59997;53.300;-6.260;2023-04-24T11:39:12;9.79;71.29
71942;DHT22;59997;53.300;-6.260;2023-04-24T11:41:38;10.01;71.30
71942;DHT22;59997;53.300;-6.260;2023-04-24T11:44:06;10.24;68.52
71942;DHT22;59997;53.300;-6.260;2023-04-24T11:46:32;10.70;70.29
71942;DHT22;59997;53.300;-6.260;2023-04-24T11:48:58;10.66;67.40
71942;DHT22;59997;53.300;-6.260;2023-04-24T11:51:25;10.61;66.77
71942;DHT22;59997;53.300;-6.260;2023-04-24T11:53:55;10.97;68.59
71942;DHT22;59997;53.300;-6.260;2023-04-24T11:56:22;11.69;66.39
71942;DHT22;59997;53.300;-6.260;2023-04-24T11:58:48;11.46;63.58
71942;DHT22;59997;53.300;-6.260;2023-04-24T12:01:14;11.30;68.83
71942;DHT22;59997;53.300;-6.260;2023-04-24T12:03:39;11.74;64.57
71942;DHT22;59997;53.300;-6.260;2023-04-24T12:06:09;12.57;62.84
71942;DHT22;59997;53.300;-6.260;2023-04-24T12:08:35;12.74;61.62
71942;DHT22;59997;53.300;-6.260;2023-04-24T12:11:04;11.89;64.54
71942;DHT22;59997;53.300;-6.260;2023-04-24T12:13:32;12.12;64.12
71942;DHT22;59997;53.300;-6.260;2023-04-24T12:15:58;11.73;64.08
71942;DHT22;59997;53.300;-6.260;2023-04-24T12:18:24;10.98;62.97
71942;DHT22;59997;53.300;-6.260;2023-04-24T12:20:50;10.17;63.99
71942;DHT22;59997;53.300;-6.260;2023-04-24T12:23:15;9.95;66.13
71942;DHT22;59997;53.300;-6.260;2023-04-24T12:25:41;10.12;67.57
71942;DHT22;59997;53.300;-6.260;2023-04-24T12:28:10;10.29;66.92
71942;DHT22;59997;53.300;-6.260;2023-04-24T12:30:48;10.49;65.28
71942;DHT22;59997;53.300;-6.260;2023-04-24T12:33:18;10.32;64.19
71942;DHT22;59997;53.300;-6.260;2023-04-24T12:35:44;10.70;67.53
71942;DHT22;59997;53.300;-6.260;2023-04-24T12:38:13;11.26;67.08
71942;DHT22;59997;53.300;-6.260;2023-04-24T12:40:40;11.44;63.10
71942;DHT22;59997;53.300;-6.260;2023-04-24T12:43:17;11.30;60.76
71942;DHT22;59997;53.300;-6.260;2023-04-24T12:45:43;11.43;65.75
71942;DHT22;59997;53.300;-6.260;2023-04-24T12:48:10;11.07;61.37
71942;DHT22;59997;53.300;-6.260;2023-04-24T12:50:35;11.19;61.37
71942;DHT22;59997;53.300;-6.260;2023-04-24T12:53:01;10.98;60.81
71942;DHT22;59997;53.300;-6.260;2023-04-24T12:55:27;10.83;62.83
71942;DHT22;59997;53.300;-6.260;2023-04-24T12:57:52;10.73;61.73
71942;DHT22;59997;53.300;-6.260;2023-04-24T13:00:20;11.04;63.00
71942;DHT22;59997;53.300;-6.260;2023-04-24T13:02:46;10.87;60.79
71942;DHT22;59997;53.300;-6.260;2023-04-24T13:05:11;11.10;61.07
71942;DHT22;59997;53.300;-6.260;2023-04-24T13:07:39;11.77;62.20
71942;DHT22;59997;53.300;-6.260;2023-04-24T13:10:05;12.53;62.71
71942;DHT22;59997;53.300;-6.260;2023-04-24T13:12:30;12.21;59.52
71942;DHT22;59997;53.300;-6.260;2023-04-24T13:14:57;11.92;59.65
71942;DHT22;59997;53.300;-6.260;2023-04-24T13:17:23;11.28;60.36
71942;DHT22;59997;53.300;-6.260;2023-04-24T13:19:50;11.05;62.13
71942;DHT22;59997;53.300;-6.260;2023-04-24T13:22:16;11.12;63.36
71942;DHT22;59997;53.300;-6.260;2023-04-24T13:24:44;11.21;63.05
71942;DHT22;59997;53.300;-6.260;2023-04-24T13:27:09;11.35;61.60
71942;DHT22;59997;53.300;-6.260;2023-04-24T13:29:36;11.10;59.67
71942;DHT22;59997;53.300;-6.260;2023-04-24T13:32:01;10.69;61.69
71942;DHT22;59997;53.300;-6.260;2023-04-24T13:34:27;10.61;63.63
71942;DHT22;59997;53.300;-6.260;2023-04-24T13:36:54;10.67;63.08
71942;DHT22;59997;53.300;-6.260;2023-04-24T13:39:20;10.64;62.57
71942;DHT22;59997;53.300;-6.260;2023-04-24T13:41:46;10.49;65.24
71942;DHT22;59997;53.300;-6.260;2023-04-24T13:44:16;10.35;64.61
71942;DHT22;59997;53.300;-6.260;2023-04-24T13:46:43;10.34;63.06
71942;DHT22;59997;53.300;-6.260;2023-04-24T13:49:10;10.04;65.43
71942;DHT22;59997;53.300;-6.260;2023-04-24T13:51:36;10.28;64.39
71942;DHT22;59997;53.300;-6.260;2023-04-24T13:54:02;10.38;64.64
71942;DHT22;59997;53.300;-6.260;2023-04-24T13:56:27;10.31;65.90
71942;DHT22;59997;53.300;-6.260;2023-04-24T13:58:53;10.49;66.26
71942;DHT22;59997;53.300;-6.260;2023-04-24T14:01:22;10.60;65.82
71942;DHT22;59997;53.300;-6.260;2023-04-24T14:03:51;10.87;63.81
71942;DHT22;59997;53.300;-6.260;2023-04-24T14:06:18;10.36;62.04
71942;DHT22;59997;53.300;-6.260;2023-04-24T14:08:43;10.31;61.99
71942;DHT22;59997;53.300;-6.260;2023-04-24T14:11:09;10.22;61.17
71942;DHT22;59997;53.300;-6.260;2023-04-24T14:13:36;10.41;63.96
71942;DHT22;59997;53.300;-6.260;2023-04-24T14:16:03;10.34;62.86
71942;DHT22;59997;53.300;-6.260;2023-04-24T14:18:28;10.00;61.23
71942;DHT22;59997;53.300;-6.260;2023-04-24T14:20:54;10.19;62.45
71942;DHT22;59997;53.300;-6.260;2023-04-24T14:23:19;10.29;63.33
71942;DHT22;59997;53.300;-6.260;2023-04-24T14:25:45;10.24;63.44
71942;DHT22;59997;53.300;-6.260;2023-04-24T14:28:11;10.46;63.87
71942;DHT22;59997;53.300;-6.260;2023-04-24T14:30:37;10.48;60.80
71942;DHT22;59997;53.300;-6.260;2023-04-24T14:33:03;10.46;58.89
71942;DHT22;59997;53.300;-6.260;2023-04-24T14:35:29;10.31;60.75
71942;DHT22;59997;53.300;-6.260;2023-04-24T14:37:56;10.50;59.80
71942;DHT22;59997;53.300;-6.260;2023-04-24T14:40:22;10.36;60.19
71942;DHT22;59997;53.300;-6.260;2023-04-24T14:42:47;10.38;65.91
71942;DHT22;59997;53.300;-6.260;2023-04-24T14:45:13;10.48;63.29
71942;DHT22;59997;53.300;-6.260;2023-04-24T14:47:38;10.14;59.64
71942;DHT22;59997;53.300;-6.260;2023-04-24T14:50:05;9.67;59.47
71942;DHT22;59997;53.300;-6.260;2023-04-24T14:52:30;9.76;61.19
71942;DHT22;59997;53.300;-6.260;2023-04-24T14:54:56;9.84;59.33
71942;DHT22;59997;53.300;-6.260;2023-04-24T14:57:22;9.67;60.78
71942;DHT22;59997;53.300;-6.260;2023-04-24T14:59:47;9.59;60.70
71942;DHT22;59997;53.300;-6.260;2023-04-24T15:02:13;9.45;59.63
71942;DHT22;59997;53.300;-6.260;2023-04-24T15:04:38;9.56;60.16
71942;DHT22;59997;53.300;-6.260;2023-04-24T15:07:04;9.55;60.65
71942;DHT22;59997;53.300;-6.260;2023-04-24T15:09:29;9.76;63.01
71942;DHT22;59997;53.300;-6.260;2023-04-24T15:11:57;9.76;60.20
71942;DHT22;59997;53.300;-6.260;2023-04-24T15:14:22;9.70;61.39
71942;DHT22;59997;53.300;-6.260;2023-04-24T15:16:48;9.63;60.82
71942;DHT22;59997;53.300;-6.260;2023-04-24T15:19:13;9.69;60.45
71942;DHT22;59997;53.300;-6.260;2023-04-24T15:21:39;9.69;59.82
71942;DHT22;59997;53.300;-6.260;2023-04-24T15:24:06;9.76;60.61
71942;DHT22;59997;53.300;-6.260;2023-04-24T15:26:32;9.83;61.39
71942;DHT22;59997;53.300;-6.260;2023-04-24T15:28:57;10.09;60.91
71942;DHT22;59997;53.300;-6.260;2023-04-24T15:31:23;9.94;57.58
71942;DHT22;59997;53.300;-6.260;2023-04-24T15:33:49;10.21;62.12
71942;DHT22;59997;53.300;-6.260;2023-04-24T15:36:16;10.39;59.32
71942;DHT22;59997;53.300;-6.260;2023-04-24T15:38:43;10.53;59.37